sensor_id;sensor_type;location;lat;lon;timestamp;P1;durP1;ratioP1;P2;durP2;ratioP2
3971;SDS011;2000;47.572;14.202;2024-02-15T00:01:08;8.73;;;4.43;;
3971;SDS011;2000;47.572;14.202;2024-02-15T00:03:35;9.87;;;3.70;;
3971;SDS011;2000;47.572;14.202;2024-02-15T00:06:02;8.33;;;5.10;;
3971;SDS011;2000;47.572;14.202;2024-02-15T00:08:29;14.63;;;5.17;;
3971;SDS011;2000;47.572;14.202;2024-02-15T00:10:57;5.10;;;3.47;;
3971;SDS011;2000;47.572;14.202;2024-02-15T00:13:24;7.90;;;4.13;;
3971;SDS011;2000;47.572;14.202;2024-02-15T00:15:51;10.87;;;4.50;;
3971;SDS011;2000;47.572;14.202;2024-02-15T00:18:19;8.27;;;4.87;;
3971;SDS011;2000;47.572;14.202;2024-02-15T00:20:46;8.33;;;4.43;;
3971;SDS011;2000;47.572;14.202;2024-02-15T00:23:13;8.80;;;4.60;;
3971;SDS011;2000;47.572;14.202;2024-02-15T00:25:42;9.70;;;4.40;;
3971;SDS011;2000;47.572;14.202;2024-02-15T00:28:11;6.93;;;3.20;;
3971;SDS011;2000;47.572;14.202;2024-02-15T00:30:39;9.10;;;4.60;;
3971;SDS011;2000;47.572;14.202;2024-02-15T00:33:07;6.77;;;4.10;;
3971;SDS011;2000;47.572;14.202;2024-02-15T00:35:34;11.80;;;4.37;;
3971;SDS011;2000;47.572;14.202;2024-02-15T00:38:02;8.87;;;3.80;;
3971;SDS011;2000;47.572;14.202;2024-02-15T00:40:30;13.33;;;4.40;;
3971;SDS011;2000;47.572;14.202;2024-02-15T00:42:57;7.43;;;3.40;;
3971;SDS011;2000;47.572;14.202;2024-02-15T00:45:24;8.50;;;3.90;;
3971;SDS011;2000;47.572;14.202;2024-02-15T00:47:51;6.03;;;3.50;;
3971;SDS011;2000;47.572;14.202;2024-02-15T00:50:20;5.63;;;4.37;;
3971;SDS011;2000;47.572;14.202;2024-02-15T00:52:47;7.20;;;3.60;;
3971;SDS011;2000;47.572;14.202;2024-02-15T00:55:14;7.93;;;4.33;;
3971;SDS011;2000;47.572;14.202;2024-02-15T00:57:41;7.20;;;3.83;;
3971;SDS011;2000;47.572;14.202;2024-02-15T01:00:08;9.17;;;3.80;;
3971;SDS011;2000;47.572;14.202;2024-02-15T01:02:36;3.97;;;3.37;;
3971;SDS011;2000;47.572;14.202;2024-02-15T01:05:03;10.07;;;4.30;;
3971;SDS011;2000;47.572;14.202;2024-02-15T01:07:30;5.60;;;3.50;;
3971;SDS011;2000;47.572;14.202;2024-02-15T01:09:57;6.03;;;3.03;;
3971;SDS011;2000;47.572;14.202;2024-02-15T01:12:25;4.40;;;3.30;;
3971;SDS011;2000;47.572;14.202;2024-02-15T01:14:52;4.53;;;2.93;;
3971;SDS011;2000;47.572;14.202;2024-02-15T01:17:19;5.90;;;3.70;;
3971;SDS011;2000;47.572;14.202;2024-02-15T01:19:46;10.63;;;3.60;;
3971;SDS011;2000;47.572;14.202;2024-02-15T01:22:13;6.47;;;4.10;;
3971;SDS011;2000;47.572;14.202;2024-02-15T01:24:40;8.93;;;4.53;;
3971;SDS011;2000;47.572;14.202;2024-02-15T01:27:07;6.00;;;3.80;;
3971;SDS011;2000;47.572;14.202;2024-02-15T01:29:35;5.83;;;4.30;;
3971;SDS011;2000;47.572;14.202;2024-02-15T01:32:02;6.03;;;4.07;;
3971;SDS011;2000;47.572;14.202;2024-02-15T01:34:30;11.60;;;4.27;;
3971;SDS011;2000;47.572;14.202;2024-02-15T01:36:57;7.77;;;3.17;;
3971;SDS011;2000;47.572;14.202;2024-02-15T01:39:24;9.23;;;4.20;;
3971;SDS011;2000;47.572;14.202;2024-02-15T01:41:51;12.40;;;3.73;;
3971;SDS011;2000;47.572;14.202;2024-02-15T01:44:18;3.77;;;2.73;;
3971;SDS011;2000;47.572;14.202;2024-02-15T01:46:47;4.60;;;3.70;;
3971;SDS011;2000;47.572;14.202;2024-02-15T01:49:15;7.63;;;3.80;;
3971;SDS011;2000;47.572;14.202;2024-02-15T01:51:43;5.17;;;3.30;;
3971;SDS011;2000;47.572;14.202;2024-02-15T01:54:11;7.17;;;3.87;;
3971;SDS011;2000;47.572;14.202;2024-02-15T01:56:38;15.63;;;4.47;;
3971;SDS011;2000;47.572;14.202;2024-02-15T01:59:06;6.90;;;4.30;;
3971;SDS011;2000;47.572;14.202;2024-02-15T02:01:33;13.90;;;4.80;;
3971;SDS011;2000;47.572;14.202;2024-02-15T02:04:00;6.30;;;4.27;;
3971;SDS011;2000;47.572;14.202;2024-02-15T02:06:27;9.00;;;4.57;;
3971;SDS011;2000;47.572;14.202;2024-02-15T02:08:55;14.10;;;5.10;;
3971;SDS011;2000;47.572;14.202;2024-02-15T02:11:23;8.10;;;4.33;;
3971;SDS011;2000;47.572;14.202;2024-02-15T02:13:50;7.50;;;4.17;;
3971;SDS011;2000;47.572;14.202;2024-02-15T02:16:25;27.23;;;4.97;;
3971;SDS011;2000;47.572;14.202;2024-02-15T02:18:57;7.50;;;4.83;;
3971;SDS011;2000;47.572;14.202;2024-02-15T02:21:27;7.50;;;3.60;;
3971;SDS011;2000;47.572;14.202;2024-02-15T02:23:56;10.67;;;4.80;;
3971;SDS011;2000;47.572;14.202;2024-02-15T02:26:24;12.67;;;4.90;;
3971;SDS011;2000;47.572;14.202;2024-02-15T02:28:51;11.10;;;5.17;;
3971;SDS011;2000;47.572;14.202;2024-02-15T02:31:21;6.97;;;4.50;;
3971;SDS011;2000;47.572;14.202;2024-02-15T02:33:49;6.30;;;4.30;;
3971;SDS011;2000;47.572;14.202;2024-02-15T02:36:20;12.13;;;4.03;;
3971;SDS011;2000;47.572;14.202;2024-02-15T02:38:48;8.70;;;3.50;;
3971;SDS011;2000;47.572;14.202;2024-02-15T02:41:16;10.30;;;3.90;;
3971;SDS011;2000;47.572;14.202;2024-02-15T02:43:46;6.40;;;4.10;;
3971;SDS011;2000;47.572;14.202;2024-02-15T02:46:13;4.70;;;4.17;;
3971;SDS011;2000;47.572;14.202;2024-02-15T02:48:40;6.50;;;4.07;;
3971;SDS011;2000;47.572;14.202;2024-02-15T02:51:07;10.40;;;3.37;;
3971;SDS011;2000;47.572;14.202;2024-02-15T02:53:34;7.70;;;3.73;;
3971;SDS011;2000;47.572;14.202;2024-02-15T02:56:02;6.33;;;3.03;;
3971;SDS011;2000;47.572;14.202;2024-02-15T02:58:30;10.03;;;2.57;;
3971;SDS011;2000;47.572;14.202;2024-02-15T03:00:57;3.27;;;2.23;;
3971;SDS011;2000;47.572;14.202;2024-02-15T03:03:27;5.27;;;3.03;;
3971;SDS011;2000;47.572;14.202;2024-02-15T03:05:54;5.90;;;2.93;;
3971;SDS011;2000;47.572;14.202;2024-02-15T03:08:21;10.97;;;3.70;;
3971;SDS011;2000;47.572;14.202;2024-02-15T03:10:49;6.97;;;4.17;;
3971;SDS011;2000;47.572;14.202;2024-02-15T03:13:16;4.30;;;3.13;;
3971;SDS011;2000;47.572;14.202;2024-02-15T03:15:45;12.00;;;3.63;;
3971;SDS011;2000;47.572;14.202;2024-02-15T03:18:15;7.60;;;3.00;;
3971;SDS011;2000;47.572;14.202;2024-02-15T03:20:42;6.40;;;2.23;;
3971;SDS011;2000;47.572;14.202;2024-02-15T03:23:10;4.57;;;3.20;;
3971;SDS011;2000;47.572;14.202;2024-02-15T03:25:38;6.47;;;4.20;;
3971;SDS011;2000;47.572;14.202;2024-02-15T03:28:05;6.17;;;2.90;;
3971;SDS011;2000;47.572;14.202;2024-02-15T03:30:32;23.97;;;4.03;;
3971;SDS011;2000;47.572;14.202;2024-02-15T03:33:00;5.70;;;2.63;;
3971;SDS011;2000;47.572;14.202;2024-02-15T03:35:32;5.13;;;2.97;;
3971;SDS011;2000;47.572;14.202;2024-02-15T03:37:59;4.63;;;3.50;;
3971;SDS011;2000;47.572;14.202;2024-02-15T03:40:27;2.87;;;2.43;;
3971;SDS011;2000;47.572;14.202;2024-02-15T03:42:57;3.47;;;2.07;;
3971;SDS011;2000;47.572;14.202;2024-02-15T03:45:24;6.73;;;1.80;;
3971;SDS011;2000;47.572;14.202;2024-02-15T03:47:53;2.37;;;1.60;;
3971;SDS011;2000;47.572;14.202;2024-02-15T03:50:21;4.70;;;2.37;;
3971;SDS011;2000;47.572;14.202;2024-02-15T03:52:49;4.30;;;2.27;;
3971;SDS011;2000;47.572;14.202;2024-02-15T03:55:17;2.23;;;1.70;;
3971;SDS011;2000;47.572;14.202;2024-02-15T03:57:44;1.60;;;1.50;;
3971;SDS011;2000;47.572;14.202;2024-02-15T04:00:13;4.60;;;1.47;;
3971;SDS011;2000;47.572;14.202;2024-02-15T04:02:48;2.13;;;1.53;;
3971;SDS011;2000;47.572;14.202;2024-02-15T04:05:16;2.87;;;1.67;;
3971;SDS011;2000;47.572;14.202;2024-02-15T04:07:45;2.83;;;1.47;;
3971;SDS011;2000;47.572;14.202;2024-02-15T04:10:12;2.23;;;2.10;;
3971;SDS011;2000;47.572;14.202;2024-02-15T04:12:39;3.63;;;2.73;;
3971;SDS011;2000;47.572;14.202;2024-02-15T04:15:09;5.40;;;3.40;;
3971;SDS011;2000;47.572;14.202;2024-02-15T04:17:42;7.13;;;3.97;;
3971;SDS011;2000;47.572;14.202;2024-02-15T04:20:11;6.07;;;3.60;;
3971;SDS011;2000;47.572;14.202;2024-02-15T04:22:39;15.87;;;4.23;;
3971;SDS011;2000;47.572;14.202;2024-02-15T04:25:09;6.20;;;3.20;;
3971;SDS011;2000;47.572;14.202;2024-02-15T04:27:37;9.23;;;4.13;;
3971;SDS011;2000;47.572;14.202;2024-02-15T04:30:06;11.50;;;3.03;;
3971;SDS011;2000;47.572;14.202;2024-02-15T04:32:35;5.97;;;4.00;;
3971;SDS011;2000;47.572;14.202;2024-02-15T04:35:03;7.03;;;4.60;;
3971;SDS011;2000;47.572;14.202;2024-02-15T04:37:35;7.30;;;4.30;;
3971;SDS011;2000;47.572;14.202;2024-02-15T04:40:04;9.60;;;5.20;;
3971;SDS011;2000;47.572;14.202;2024-02-15T04:42:38;12.63;;;5.17;;
3971;SDS011;2000;47.572;14.202;2024-02-15T04:45:11;7.30;;;3.87;;
3971;SDS011;2000;47.572;14.202;2024-02-15T04:47:41;21.00;;;5.70;;
3971;SDS011;2000;47.572;14.202;2024-02-15T04:50:08;9.50;;;3.97;;
3971;SDS011;2000;47.572;14.202;2024-02-15T04:52:36;12.43;;;4.20;;
3971;SDS011;2000;47.572;14.202;2024-02-15T04:55:03;6.40;;;4.13;;
3971;SDS011;2000;47.572;14.202;2024-02-15T04:57:33;5.20;;;4.00;;
3971;SDS011;2000;47.572;14.202;2024-02-15T05:00:04;3.93;;;3.30;;
3971;SDS011;2000;47.572;14.202;2024-02-15T05:02:37;6.93;;;3.40;;
3971;SDS011;2000;47.572;14.202;2024-02-15T05:05:09;6.67;;;3.70;;
3971;SDS011;2000;47.572;14.202;2024-02-15T05:07:36;6.63;;;3.40;;
3971;SDS011;2000;47.572;14.202;2024-02-15T05:10:07;8.63;;;3.73;;
3971;SDS011;2000;47.572;14.202;2024-02-15T05:12:38;8.63;;;3.93;;
3971;SDS011;2000;47.572;14.202;2024-02-15T05:15:07;4.87;;;3.40;;
3971;SDS011;2000;47.572;14.202;2024-02-15T05:17:39;5.80;;;3.20;;
3971;SDS011;2000;47.572;14.202;2024-02-15T05:20:09;7.80;;;3.10;;
3971;SDS011;2000;47.572;14.202;2024-02-15T05:22:42;6.67;;;3.30;;
3971;SDS011;2000;47.572;14.202;2024-02-15T05:25:18;6.30;;;4.30;;
3971;SDS011;2000;47.572;14.202;2024-02-15T05:27:53;7.40;;;3.50;;
3971;SDS011;2000;47.572;14.202;2024-02-15T05:30:23;5.90;;;3.43;;
3971;SDS011;2000;47.572;14.202;2024-02-15T05:32:50;3.50;;;2.63;;
3971;SDS011;2000;47.572;14.202;2024-02-15T05:35:21;4.70;;;2.23;;
3971;SDS011;2000;47.572;14.202;2024-02-15T05:37:48;7.73;;;2.00;;
3971;SDS011;2000;47.572;14.202;2024-02-15T05:40:15;2.87;;;2.50;;
3971;SDS011;2000;47.572;14.202;2024-02-15T05:42:42;4.63;;;2.97;;
3971;SDS011;2000;47.572;14.202;2024-02-15T05:47:51;8.93;;;5.40;;
3971;SDS011;2000;47.572;14.202;2024-02-15T05:50:19;9.67;;;5.83;;
3971;SDS011;2000;47.572;14.202;2024-02-15T05:52:48;20.80;;;8.13;;
3971;SDS011;2000;47.572;14.202;2024-02-15T05:55:15;34.63;;;10.93;;
3971;SDS011;2000;47.572;14.202;2024-02-15T05:57:43;46.23;;;11.53;;
3971;SDS011;2000;47.572;14.202;2024-02-15T06:00:11;16.40;;;6.20;;
3971;SDS011;2000;47.572;14.202;2024-02-15T06:02:48;13.77;;;5.67;;
3971;SDS011;2000;47.572;14.202;2024-02-15T06:05:17;15.00;;;4.93;;
3971;SDS011;2000;47.572;14.202;2024-02-15T06:07:44;10.40;;;4.03;;
3971;SDS011;2000;47.572;14.202;2024-02-15T06:10:13;10.93;;;3.10;;
3971;SDS011;2000;47.572;14.202;2024-02-15T06:12:41;10.27;;;3.77;;
3971;SDS011;2000;47.572;14.202;2024-02-15T06:15:09;8.23;;;3.20;;
3971;SDS011;2000;47.572;14.202;2024-02-15T06:17:44;9.80;;;3.63;;
3971;SDS011;2000;47.572;14.202;2024-02-15T06:20:15;5.80;;;3.20;;
3971;SDS011;2000;47.572;14.202;2024-02-15T06:22:45;7.20;;;2.53;;
3971;SDS011;2000;47.572;14.202;2024-02-15T06:25:13;3.90;;;2.50;;
3971;SDS011;2000;47.572;14.202;2024-02-15T06:27:42;5.97;;;2.47;;
3971;SDS011;2000;47.572;14.202;2024-02-15T06:30:09;7.30;;;3.30;;
3971;SDS011;2000;47.572;14.202;2024-02-15T06:32:56;3.23;;;2.53;;
3971;SDS011;2000;47.572;14.202;2024-02-15T06:35:42;8.80;;;4.30;;
3971;SDS011;2000;47.572;14.202;2024-02-15T06:38:28;4.30;;;3.27;;
3971;SDS011;2000;47.572;14.202;2024-02-15T06:41:13;4.20;;;2.17;;
3971;SDS011;2000;47.572;14.202;2024-02-15T06:43:40;3.60;;;2.83;;
3971;SDS011;2000;47.572;14.202;2024-02-15T06:46:08;2.57;;;1.47;;
3971;SDS011;2000;47.572;14.202;2024-02-15T06:48:37;4.67;;;2.40;;
3971;SDS011;2000;47.572;14.202;2024-02-15T06:51:04;2.90;;;2.60;;
3971;SDS011;2000;47.572;14.202;2024-02-15T06:53:32;6.03;;;2.50;;
3971;SDS011;2000;47.572;14.202;2024-02-15T06:55:59;2.47;;;2.17;;
3971;SDS011;2000;47.572;14.202;2024-02-15T06:58:26;2.93;;;1.70;;
3971;SDS011;2000;47.572;14.202;2024-02-15T07:00:53;6.17;;;2.43;;
3971;SDS011;2000;47.572;14.202;2024-02-15T07:03:21;5.00;;;1.90;;
3971;SDS011;2000;47.572;14.202;2024-02-15T07:05:50;4.50;;;2.30;;
3971;SDS011;2000;47.572;14.202;2024-02-15T07:08:17;3.53;;;2.73;;
3971;SDS011;2000;47.572;14.202;2024-02-15T07:10:44;3.50;;;2.80;;
3971;SDS011;2000;47.572;14.202;2024-02-15T07:13:11;4.50;;;3.40;;
3971;SDS011;2000;47.572;14.202;2024-02-15T07:15:38;7.80;;;4.27;;
3971;SDS011;2000;47.572;14.202;2024-02-15T07:18:05;5.63;;;4.10;;
3971;SDS011;2000;47.572;14.202;2024-02-15T07:20:33;5.57;;;3.50;;
3971;SDS011;2000;47.572;14.202;2024-02-15T07:23:01;3.67;;;2.30;;
3971;SDS011;2000;47.572;14.202;2024-02-15T07:25:28;1.80;;;1.70;;
3971;SDS011;2000;47.572;14.202;2024-02-15T07:27:55;1.93;;;1.53;;
3971;SDS011;2000;47.572;14.202;2024-02-15T07:30:23;7.67;;;4.00;;
3971;SDS011;2000;47.572;14.202;2024-02-15T07:32:52;8.47;;;4.23;;
3971;SDS011;2000;47.572;14.202;2024-02-15T07:35:19;11.77;;;7.03;;
3971;SDS011;2000;47.572;14.202;2024-02-15T07:37:52;16.70;;;10.53;;
3971;SDS011;2000;47.572;14.202;2024-02-15T07:40:25;15.23;;;8.40;;
3971;SDS011;2000;47.572;14.202;2024-02-15T07:42:56;13.63;;;7.83;;
3971;SDS011;2000;47.572;14.202;2024-02-15T07:45:24;8.57;;;5.80;;
3971;SDS011;2000;47.572;14.202;2024-02-15T07:47:51;9.00;;;5.63;;
3971;SDS011;2000;47.572;14.202;2024-02-15T07:50:19;7.57;;;5.20;;
3971;SDS011;2000;47.572;14.202;2024-02-15T07:52:47;10.33;;;5.60;;
3971;SDS011;2000;47.572;14.202;2024-02-15T07:55:14;11.23;;;5.10;;
3971;SDS011;2000;47.572;14.202;2024-02-15T07:57:41;10.80;;;5.73;;
3971;SDS011;2000;47.572;14.202;2024-02-15T08:00:08;17.10;;;8.90;;
3971;SDS011;2000;47.572;14.202;2024-02-15T08:02:37;15.17;;;9.07;;
3971;SDS011;2000;47.572;14.202;2024-02-15T08:05:07;33.40;;;12.87;;
3971;SDS011;2000;47.572;14.202;2024-02-15T08:07:37;20.40;;;10.07;;
3971;SDS011;2000;47.572;14.202;2024-02-15T08:10:08;25.80;;;10.70;;
3971;SDS011;2000;47.572;14.202;2024-02-15T08:12:40;26.10;;;8.23;;
3971;SDS011;2000;47.572;14.202;2024-02-15T08:15:08;21.00;;;8.43;;
3971;SDS011;2000;47.572;14.202;2024-02-15T08:17:39;14.70;;;6.63;;
3971;SDS011;2000;47.572;14.202;2024-02-15T08:20:10;28.03;;;9.70;;
3971;SDS011;2000;47.572;14.202;2024-02-15T08:22:38;19.43;;;11.23;;
3971;SDS011;2000;47.572;14.202;2024-02-15T08:25:09;12.20;;;8.03;;
3971;SDS011;2000;47.572;14.202;2024-02-15T08:27:40;19.90;;;7.13;;
3971;SDS011;2000;47.572;14.202;2024-02-15T08:30:10;7.60;;;5.70;;
3971;SDS011;2000;47.572;14.202;2024-02-15T08:32:41;40.70;;;5.07;;
3971;SDS011;2000;47.572;14.202;2024-02-15T08:35:09;18.00;;;5.83;;
3971;SDS011;2000;47.572;14.202;2024-02-15T08:37:38;19.27;;;6.60;;
3971;SDS011;2000;47.572;14.202;2024-02-15T08:40:09;30.20;;;6.90;;
3971;SDS011;2000;47.572;14.202;2024-02-15T08:42:45;12.60;;;5.00;;
3971;SDS011;2000;47.572;14.202;2024-02-15T08:45:15;14.37;;;5.83;;
3971;SDS011;2000;47.572;14.202;2024-02-15T08:47:42;13.07;;;6.10;;
3971;SDS011;2000;47.572;14.202;2024-02-15T08:50:10;6.37;;;4.60;;
3971;SDS011;2000;47.572;14.202;2024-02-15T08:52:38;9.37;;;6.43;;
3971;SDS011;2000;47.572;14.202;2024-02-15T08:55:09;20.03;;;6.60;;
3971;SDS011;2000;47.572;14.202;2024-02-15T08:57:37;10.27;;;5.40;;
3971;SDS011;2000;47.572;14.202;2024-02-15T09:00:07;10.33;;;5.57;;
3971;SDS011;2000;47.572;14.202;2024-02-15T09:02:45;11.07;;;5.13;;
3971;SDS011;2000;47.572;14.202;2024-02-15T09:05:13;8.17;;;4.93;;
3971;SDS011;2000;47.572;14.202;2024-02-15T09:07:41;6.47;;;4.50;;
3971;SDS011;2000;47.572;14.202;2024-02-15T09:10:09;16.10;;;5.60;;
3971;SDS011;2000;47.572;14.202;2024-02-15T09:12:37;7.73;;;4.80;;
3971;SDS011;2000;47.572;14.202;2024-02-15T09:15:06;22.77;;;6.97;;
3971;SDS011;2000;47.572;14.202;2024-02-15T09:17:35;16.60;;;6.80;;
3971;SDS011;2000;47.572;14.202;2024-02-15T09:20:13;13.50;;;6.30;;
3971;SDS011;2000;47.572;14.202;2024-02-15T09:22:47;57.30;;;8.63;;
3971;SDS011;2000;47.572;14.202;2024-02-15T09:25:15;18.23;;;8.10;;
3971;SDS011;2000;47.572;14.202;2024-02-15T09:27:42;11.57;;;6.70;;
3971;SDS011;2000;47.572;14.202;2024-02-15T09:30:10;24.40;;;7.30;;
3971;SDS011;2000;47.572;14.202;2024-02-15T09:32:39;19.57;;;7.30;;
3971;SDS011;2000;47.572;14.202;2024-02-15T09:35:06;24.53;;;6.70;;
3971;SDS011;2000;47.572;14.202;2024-02-15T09:37:38;11.03;;;7.23;;
3971;SDS011;2000;47.572;14.202;2024-02-15T09:40:11;20.40;;;6.77;;
3971;SDS011;2000;47.572;14.202;2024-02-15T09:42:39;20.47;;;6.00;;
3971;SDS011;2000;47.572;14.202;2024-02-15T09:45:07;22.50;;;7.27;;
3971;SDS011;2000;47.572;14.202;2024-02-15T09:47:39;17.47;;;7.60;;
3971;SDS011;2000;47.572;14.202;2024-02-15T09:50:10;11.80;;;6.90;;
3971;SDS011;2000;47.572;14.202;2024-02-15T09:52:59;16.23;;;7.17;;
3971;SDS011;2000;47.572;14.202;2024-02-15T09:55:34;20.90;;;6.70;;
3971;SDS011;2000;47.572;14.202;2024-02-15T09:58:01;16.23;;;6.33;;
3971;SDS011;2000;47.572;14.202;2024-02-15T10:00:31;15.03;;;6.40;;
3971;SDS011;2000;47.572;14.202;2024-02-15T10:02:58;15.53;;;5.53;;
3971;SDS011;2000;47.572;14.202;2024-02-15T10:05:28;20.13;;;5.57;;
3971;SDS011;2000;47.572;14.202;2024-02-15T10:07:55;10.70;;;5.90;;
3971;SDS011;2000;47.572;14.202;2024-02-15T10:12:50;8.13;;;4.60;;
3971;SDS011;2000;47.572;14.202;2024-02-15T10:15:27;13.33;;;6.30;;
3971;SDS011;2000;47.572;14.202;2024-02-15T10:17:58;15.53;;;7.37;;
3971;SDS011;2000;47.572;14.202;2024-02-15T10:20:26;11.90;;;6.80;;
3971;SDS011;2000;47.572;14.202;2024-02-15T10:22:58;24.80;;;5.80;;
3971;SDS011;2000;47.572;14.202;2024-02-15T10:25:36;14.67;;;7.00;;
3971;SDS011;2000;47.572;14.202;2024-02-15T10:28:05;12.07;;;5.30;;
3971;SDS011;2000;47.572;14.202;2024-02-15T10:30:38;10.90;;;4.87;;
3971;SDS011;2000;47.572;14.202;2024-02-15T10:33:06;12.17;;;5.13;;
3971;SDS011;2000;47.572;14.202;2024-02-15T10:35:36;14.77;;;5.07;;
3971;SDS011;2000;47.572;14.202;2024-02-15T10:38:10;8.73;;;4.07;;
3971;SDS011;2000;47.572;14.202;2024-02-15T10:40:38;7.23;;;4.80;;
3971;SDS011;2000;47.572;14.202;2024-02-15T10:43:08;27.27;;;6.10;;
3971;SDS011;2000;47.572;14.202;2024-02-15T10:45:39;36.13;;;6.17;;
3971;SDS011;2000;47.572;14.202;2024-02-15T10:48:10;25.83;;;4.20;;
3971;SDS011;2000;47.572;14.202;2024-02-15T10:50:41;23.17;;;5.43;;
3971;SDS011;2000;47.572;14.202;2024-02-15T10:58:32;19.80;;;5.90;;
3971;SDS011;2000;47.572;14.202;2024-02-15T11:01:06;12.67;;;4.90;;
3971;SDS011;2000;47.572;14.202;2024-02-15T11:03:35;16.00;;;4.60;;
3971;SDS011;2000;47.572;14.202;2024-02-15T11:06:04;10.60;;;4.93;;
3971;SDS011;2000;47.572;14.202;2024-02-15T11:08:34;18.03;;;5.40;;
3971;SDS011;2000;47.572;14.202;2024-02-15T11:11:01;16.97;;;4.23;;
3971;SDS011;2000;47.572;14.202;2024-02-15T11:13:31;9.43;;;4.10;;
3971;SDS011;2000;47.572;14.202;2024-02-15T11:15:59;15.03;;;3.27;;
3971;SDS011;2000;47.572;14.202;2024-02-15T11:21:16;13.37;;;3.37;;
3971;SDS011;2000;47.572;14.202;2024-02-15T11:23:44;8.67;;;3.10;;
3971;SDS011;2000;47.572;14.202;2024-02-15T11:35:07;15.40;;;3.57;;
3971;SDS011;2000;47.572;14.202;2024-02-15T11:40:18;22.13;;;4.60;;
3971;SDS011;2000;47.572;14.202;2024-02-15T11:42:45;18.07;;;3.30;;
3971;SDS011;2000;47.572;14.202;2024-02-15T11:45:14;8.97;;;2.83;;
3971;SDS011;2000;47.572;14.202;2024-02-15T11:47:49;6.57;;;2.17;;
3971;SDS011;2000;47.572;14.202;2024-02-15T11:50:18;8.23;;;1.73;;
3971;SDS011;2000;47.572;14.202;2024-02-15T11:52:47;9.33;;;3.40;;
3971;SDS011;2000;47.572;14.202;2024-02-15T11:55:18;19.60;;;2.83;;
3971;SDS011;2000;47.572;14.202;2024-02-15T11:58:00;6.70;;;1.40;;
3971;SDS011;2000;47.572;14.202;2024-02-15T12:00:43;4.87;;;1.63;;
3971;SDS011;2000;47.572;14.202;2024-02-15T12:03:28;12.83;;;2.57;;
3971;SDS011;2000;47.572;14.202;2024-02-15T12:06:29;22.53;;;2.57;;
3971;SDS011;2000;47.572;14.202;2024-02-15T12:09:19;8.67;;;2.53;;
3971;SDS011;2000;47.572;14.202;2024-02-15T12:12:06;16.73;;;2.80;;
3971;SDS011;2000;47.572;14.202;2024-02-15T12:15:00;13.87;;;2.80;;
3971;SDS011;2000;47.572;14.202;2024-02-15T12:17:47;14.63;;;1.70;;
3971;SDS011;2000;47.572;14.202;2024-02-15T12:20:33;15.93;;;2.60;;
3971;SDS011;2000;47.572;14.202;2024-02-15T12:23:01;17.67;;;3.10;;
3971;SDS011;2000;47.572;14.202;2024-02-15T12:25:28;8.70;;;2.00;;
3971;SDS011;2000;47.572;14.202;2024-02-15T12:28:00;18.53;;;2.40;;
3971;SDS011;2000;47.572;14.202;2024-02-15T12:30:34;7.97;;;3.10;;
3971;SDS011;2000;47.572;14.202;2024-02-15T12:33:10;19.17;;;2.30;;
3971;SDS011;2000;47.572;14.202;2024-02-15T12:35:40;8.83;;;3.20;;
3971;SDS011;2000;47.572;14.202;2024-02-15T12:38:09;13.97;;;2.60;;
3971;SDS011;2000;47.572;14.202;2024-02-15T12:40:42;11.07;;;2.70;;
3971;SDS011;2000;47.572;14.202;2024-02-15T12:43:13;13.03;;;3.47;;
3971;SDS011;2000;47.572;14.202;2024-02-15T12:45:40;12.57;;;2.70;;
3971;SDS011;2000;47.572;14.202;2024-02-15T12:48:08;9.53;;;1.80;;
3971;SDS011;2000;47.572;14.202;2024-02-15T12:50:37;13.40;;;2.10;;
3971;SDS011;2000;47.572;14.202;2024-02-15T12:53:05;6.60;;;2.43;;
3971;SDS011;2000;47.572;14.202;2024-02-15T12:55:35;9.33;;;1.60;;
3971;SDS011;2000;47.572;14.202;2024-02-15T12:58:05;10.73;;;2.23;;
3971;SDS011;2000;47.572;14.202;2024-02-15T13:00:42;7.80;;;1.90;;
3971;SDS011;2000;47.572;14.202;2024-02-15T13:03:09;4.47;;;1.93;;
3971;SDS011;2000;47.572;14.202;2024-02-15T13:05:38;10.27;;;2.10;;
3971;SDS011;2000;47.572;14.202;2024-02-15T13:08:07;2.20;;;1.53;;
3971;SDS011;2000;47.572;14.202;2024-02-15T13:10:41;6.00;;;1.87;;
3971;SDS011;2000;47.572;14.202;2024-02-15T13:13:10;5.40;;;1.33;;
3971;SDS011;2000;47.572;14.202;2024-02-15T13:15:37;4.30;;;1.73;;
3971;SDS011;2000;47.572;14.202;2024-02-15T13:18:05;2.23;;;1.00;;
3971;SDS011;2000;47.572;14.202;2024-02-15T13:20:37;1.50;;;1.00;;
3971;SDS011;2000;47.572;14.202;2024-02-15T13:23:06;22.07;;;1.57;;
3971;SDS011;2000;47.572;14.202;2024-02-15T13:25:41;20.53;;;2.33;;
3971;SDS011;2000;47.572;14.202;2024-02-15T13:28:11;5.30;;;1.70;;
3971;SDS011;2000;47.572;14.202;2024-02-15T13:30:40;7.53;;;1.83;;
3971;SDS011;2000;47.572;14.202;2024-02-15T13:33:13;5.03;;;1.50;;
3971;SDS011;2000;47.572;14.202;2024-02-15T13:35:41;2.03;;;1.23;;
3971;SDS011;2000;47.572;14.202;2024-02-15T13:38:08;7.33;;;1.07;;
3971;SDS011;2000;47.572;14.202;2024-02-15T13:40:42;4.53;;;1.77;;
3971;SDS011;2000;47.572;14.202;2024-02-15T13:43:11;9.53;;;2.00;;
3971;SDS011;2000;47.572;14.202;2024-02-15T13:45:39;23.90;;;2.20;;
3971;SDS011;2000;47.572;14.202;2024-02-15T13:48:07;18.77;;;1.57;;
3971;SDS011;2000;47.572;14.202;2024-02-15T13:50:36;4.17;;;1.43;;
3971;SDS011;2000;47.572;14.202;2024-02-15T13:53:04;2.90;;;1.83;;
3971;SDS011;2000;47.572;14.202;2024-02-15T13:55:31;11.73;;;2.30;;
3971;SDS011;2000;47.572;14.202;2024-02-15T13:57:58;6.37;;;2.00;;
3971;SDS011;2000;47.572;14.202;2024-02-15T14:00:27;6.67;;;1.60;;
3971;SDS011;2000;47.572;14.202;2024-02-15T14:03:01;12.10;;;1.90;;
3971;SDS011;2000;47.572;14.202;2024-02-15T14:05:30;12.83;;;2.40;;
3971;SDS011;2000;47.572;14.202;2024-02-15T14:07:58;18.37;;;2.03;;
3971;SDS011;2000;47.572;14.202;2024-02-15T14:10:30;14.27;;;1.90;;
3971;SDS011;2000;47.572;14.202;2024-02-15T14:12:58;8.00;;;1.60;;
3971;SDS011;2000;47.572;14.202;2024-02-15T14:15:27;4.13;;;1.70;;
3971;SDS011;2000;47.572;14.202;2024-02-15T14:17:54;13.83;;;3.43;;
3971;SDS011;2000;47.572;14.202;2024-02-15T14:20:23;15.73;;;2.80;;
3971;SDS011;2000;47.572;14.202;2024-02-15T14:22:50;8.03;;;2.70;;
3971;SDS011;2000;47.572;14.202;2024-02-15T14:25:24;8.70;;;2.37;;
3971;SDS011;2000;47.572;14.202;2024-02-15T14:27:55;21.03;;;2.60;;
3971;SDS011;2000;47.572;14.202;2024-02-15T14:30:26;8.07;;;1.87;;
3971;SDS011;2000;47.572;14.202;2024-02-15T14:33:12;6.87;;;1.50;;
3971;SDS011;2000;47.572;14.202;2024-02-15T14:35:45;7.70;;;2.17;;
3971;SDS011;2000;47.572;14.202;2024-02-15T14:38:12;11.07;;;1.90;;
3971;SDS011;2000;47.572;14.202;2024-02-15T14:40:43;3.27;;;2.23;;
3971;SDS011;2000;47.572;14.202;2024-02-15T14:43:12;2.57;;;2.10;;
3971;SDS011;2000;47.572;14.202;2024-02-15T14:45:43;10.03;;;2.10;;
3971;SDS011;2000;47.572;14.202;2024-02-15T14:48:10;8.73;;;1.90;;
3971;SDS011;2000;47.572;14.202;2024-02-15T14:50:37;11.83;;;1.80;;
3971;SDS011;2000;47.572;14.202;2024-02-15T14:53:05;25.10;;;2.60;;
3971;SDS011;2000;47.572;14.202;2024-02-15T14:55:34;14.83;;;2.60;;
3971;SDS011;2000;47.572;14.202;2024-02-15T14:58:02;31.47;;;3.03;;
3971;SDS011;2000;47.572;14.202;2024-02-15T15:00:30;15.30;;;1.83;;
3971;SDS011;2000;47.572;14.202;2024-02-15T15:03:03;11.63;;;2.33;;
3971;SDS011;2000;47.572;14.202;2024-02-15T15:05:31;8.07;;;3.00;;
3971;SDS011;2000;47.572;14.202;2024-02-15T15:08:17;4.10;;;1.50;;
3971;SDS011;2000;47.572;14.202;2024-02-15T15:11:02;7.60;;;1.53;;
3971;SDS011;2000;47.572;14.202;2024-02-15T15:13:48;6.27;;;0.97;;
3971;SDS011;2000;47.572;14.202;2024-02-15T15:16:15;1.80;;;1.00;;
3971;SDS011;2000;47.572;14.202;2024-02-15T15:18:45;10.90;;;1.10;;
3971;SDS011;2000;47.572;14.202;2024-02-15T15:21:13;6.33;;;0.97;;
3971;SDS011;2000;47.572;14.202;2024-02-15T15:23:42;4.43;;;1.23;;
3971;SDS011;2000;47.572;14.202;2024-02-15T15:26:10;8.30;;;1.10;;
3971;SDS011;2000;47.572;14.202;2024-02-15T15:28:40;27.87;;;1.33;;
3971;SDS011;2000;47.572;14.202;2024-02-15T15:31:07;10.17;;;1.17;;
3971;SDS011;2000;47.572;14.202;2024-02-15T15:33:34;2.67;;;0.73;;
3971;SDS011;2000;47.572;14.202;2024-02-15T15:36:03;2.83;;;0.80;;